<?xml version="1.0" encoding="UTF-8" standalone="no" ?>
<gpx xmlns="http://www.topografix.com/GPX/1/1" xmlns:xsi="http://www.w3.org/2001/XMLSchema-instance" xsi:schemaLocation="http://www.topografix.com/GPX/1/1 http://www.topografix.com/GPX/1/1/gpx.xsd" version="1.1" creator="VisuGPX - https://www.visugpx.com">
  <metadata>
    <name>luzech 6 descentes</name>
    <desc><![CDATA[parcours typé enduro avec de belles descentes]]></desc>
  </metadata>
  <trk>
    <name><![CDATA[2014-04-01-08-18-57]]></name>
    <trkseg>
      <trkpt lat="44.4393" lon="1.30314">
        <ele>211.383</ele>
        <time>2014-04-01T10:48:34Z</time>
      </trkpt>
      <trkpt lat="44.43928" lon="1.30317">
        <ele>211.853</ele>
        <time>2014-04-01T10:48:36Z</time>
      </trkpt>
      <trkpt lat="44.43922" lon="1.30322">
        <ele>215.413</ele>
        <time>2014-04-01T10:48:42Z</time>
      </trkpt>
      <trkpt lat="44.43914" lon="1.30332">
        <ele>217.553</ele>
        <time>2014-04-01T10:48:50Z</time>
      </trkpt>
      <trkpt lat="44.43906" lon="1.30342">
        <ele>219.303</ele>
        <time>2014-04-01T10:48:58Z</time>
      </trkpt>
      <trkpt lat="44.43902" lon="1.30347">
        <ele>219.963</ele>
        <time>2014-04-01T10:49:02Z</time>
      </trkpt>
      <trkpt lat="44.43897" lon="1.30353">
        <ele>220.763</ele>
        <time>2014-04-01T10:49:08Z</time>
      </trkpt>
      <trkpt lat="44.4389" lon="1.30364">
        <ele>223.373</ele>
        <time>2014-04-01T10:49:18Z</time>
      </trkpt>
      <trkpt lat="44.43884" lon="1.30375">
        <ele>225.403</ele>
        <time>2014-04-01T10:49:27Z</time>
      </trkpt>
      <trkpt lat="44.43879" lon="1.30385">
        <ele>227.273</ele>
        <time>2014-04-01T10:49:36Z</time>
      </trkpt>
      <trkpt lat="44.43875" lon="1.3039">
        <ele>229.804</ele>
        <time>2014-04-01T10:49:41Z</time>
      </trkpt>
      <trkpt lat="44.43868" lon="1.30404">
        <ele>234.084</ele>
        <time>2014-04-01T10:49:52Z</time>
      </trkpt>
      <trkpt lat="44.43864" lon="1.30412">
        <ele>235.433</ele>
        <time>2014-04-01T10:49:59Z</time>
      </trkpt>
      <trkpt lat="44.4386" lon="1.3042">
        <ele>236.254</ele>
        <time>2014-04-01T10:50:05Z</time>
      </trkpt>
      <trkpt lat="44.43857" lon="1.30425">
        <ele>236.903</ele>
        <time>2014-04-01T10:50:11Z</time>
      </trkpt>
      <trkpt lat="44.43851" lon="1.30435">
        <ele>238.443</ele>
        <time>2014-04-01T10:50:19Z</time>
      </trkpt>
      <trkpt lat="44.43847" lon="1.30442">
        <ele>239.463</ele>
        <time>2014-04-01T10:50:25Z</time>
      </trkpt>
      <trkpt lat="44.43845" lon="1.30446">
        <ele>240.053</ele>
        <time>2014-04-01T10:50:28Z</time>
      </trkpt>
      <trkpt lat="44.43837" lon="1.30457">
        <ele>242.494</ele>
        <time>2014-04-01T10:50:38Z</time>
      </trkpt>
      <trkpt lat="44.43833" lon="1.30464">
        <ele>243.603</ele>
        <time>2014-04-01T10:50:44Z</time>
      </trkpt>
      <trkpt lat="44.43826" lon="1.30471">
        <ele>245.333</ele>
        <time>2014-04-01T10:50:53Z</time>
      </trkpt>
      <trkpt lat="44.4382" lon="1.30477">
        <ele>247.413</ele>
        <time>2014-04-01T10:51:01Z</time>
      </trkpt>
      <trkpt lat="44.43817" lon="1.3048">
        <ele>248.163</ele>
        <time>2014-04-01T10:51:04Z</time>
      </trkpt>
      <trkpt lat="44.43812" lon="1.30485">
        <ele>249.883</ele>
        <time>2014-04-01T10:51:11Z</time>
      </trkpt>
      <trkpt lat="44.43805" lon="1.3049">
        <ele>252.173</ele>
        <time>2014-04-01T10:51:18Z</time>
      </trkpt>
      <trkpt lat="44.43809" lon="1.30494">
        <ele>252.502</ele>
        <time>2014-04-01T10:51:23Z</time>
      </trkpt>
      <trkpt lat="44.43812" lon="1.30494">
        <ele>252.382</ele>
        <time>2014-04-01T10:51:26Z</time>
      </trkpt>
      <trkpt lat="44.43826" lon="1.30496">
        <ele>251.251</ele>
        <time>2014-04-01T10:51:38Z</time>
      </trkpt>
      <trkpt lat="44.43836" lon="1.30498">
        <ele>251.222</ele>
        <time>2014-04-01T10:51:47Z</time>
      </trkpt>
      <trkpt lat="44.43848" lon="1.30498">
        <ele>252.252</ele>
        <time>2014-04-01T10:51:57Z</time>
      </trkpt>
      <trkpt lat="44.43861" lon="1.30495">
        <ele>260.813</ele>
        <time>2014-04-01T10:52:07Z</time>
      </trkpt>
      <trkpt lat="44.43873" lon="1.30493">
        <ele>264.723</ele>
        <time>2014-04-01T10:52:16Z</time>
      </trkpt>
      <trkpt lat="44.43884" lon="1.30491">
        <ele>269.063</ele>
        <time>2014-04-01T10:52:25Z</time>
      </trkpt>
      <trkpt lat="44.43898" lon="1.30488">
        <ele>273.052</ele>
        <time>2014-04-01T10:52:36Z</time>
      </trkpt>
      <trkpt lat="44.43911" lon="1.30488">
        <ele>273.272</ele>
        <time>2014-04-01T10:52:46Z</time>
      </trkpt>
      <trkpt lat="44.43919" lon="1.30487">
        <ele>273.202</ele>
        <time>2014-04-01T10:52:54Z</time>
      </trkpt>
      <trkpt lat="44.43919" lon="1.30487">
        <ele>273.286</ele>
        <time>2014-04-01T10:52:56Z</time>
      </trkpt>
    </trkseg>
  </trk>
</gpx>